Time;durP1;ratioP1;P1;durP2;ratioP2;P2;SDS_P1;SDS_P2;PMS_P1;PMS_P2;Temp;Humidity;BMP_temperature;BMP_pressure;BME280_temperature;BME280_humidity;BME280_pressure;Samples;Min_cycle;Max_cycle;Signal;HPM_P1;HPM_P2
2021/08/03 00:10:06;;;;;;;0.40;0.40;;;;;;;16.20;70.08;98721.19;5155481;27;43124;-81
2021/08/03 00:13:26;;;;;;;0.23;0.23;;;;;;;16.06;69.78;98714.41;5134484;27;42384;-82
2021/08/03 00:20:08;;;;;;;0.70;0.70;;;;;;;15.85;70.76;98682.38;5133868;27;40841;-83
2021/08/03 00:23:04;;;;;;;0.40;0.40;;;;;;;16.11;70.38;98737.06;5123538;27;42141;-82
2021/08/03 00:26:09;;;;;;;0.30;0.30;;;;;;;16.05;70.43;98740.28;5130920;27;42403;-82
2021/08/03 00:31:50;;;;;;;0.50;0.50;;;;;;;15.74;70.09;98706.50;5134130;27;40438;-82
2021/08/03 00:34:25;;;;;;;0.30;0.30;;;;;;;15.99;70.51;98751.47;5135427;27;43377;-82
2021/08/03 00:37:03;;;;;;;0.80;0.77;;;;;;;16.11;70.64;98770.94;5134986;27;41209;-83
2021/08/03 00:39:48;;;;;;;0.40;0.40;;;;;;;16.00;70.56;98761.19;5135610;27;39485;-82
2021/08/03 00:42:24;;;;;;;0.50;0.50;;;;;;;15.98;70.43;98757.78;5112082;27;41558;-83
2021/08/03 00:45:09;;;;;;;0.60;0.60;;;;;;;15.82;70.69;98724.56;5112715;27;41891;-83
2021/08/03 00:47:57;;;;;;;0.43;0.43;;;;;;;16.02;70.80;98763.72;5096365;27;42349;-82
2021/08/03 00:51:31;;;;;;;0.53;0.40;;;;;;;15.59;70.76;98689.97;5091496;27;40282;-83
2021/08/03 01:01:12;;;;;;;0.30;0.30;;;;;;;16.00;71.42;98750.50;5046603;27;40947;-83
2021/08/03 01:03:41;;;;;;;0.73;0.73;;;;;;;16.01;71.21;98757.53;5114535;27;41286;-84
2021/08/03 01:06:14;;;;;;;0.60;0.60;;;;;;;16.09;71.19;98768.41;5112648;27;41684;-82
2021/08/03 01:08:59;;;;;;;0.30;0.30;;;;;;;16.15;71.07;98773.22;5113109;27;43600;-83
2021/08/03 01:11:38;;;;;;;0.30;0.30;;;;;;;16.08;70.52;98753.34;5130502;27;43309;-81
2021/08/03 01:14:14;;;;;;;0.40;0.40;;;;;;;16.16;70.41;98761.56;5124427;27;38879;-81
2021/08/03 01:16:49;;;;;;;0.40;0.40;;;;;;;16.22;70.24;98762.84;5152224;27;42018;-83
2021/08/03 01:19:23;;;;;;;0.50;0.50;;;;;;;16.22;70.21;98764.66;5134285;27;41737;-84
2021/08/03 01:22:04;;;;;;;0.57;0.50;;;;;;;15.93;70.59;98728.00;5151546;27;42815;-83
2021/08/03 01:24:55;;;;;;;0.40;0.40;;;;;;;16.12;70.33;98770.81;5152533;27;42236;-83
2021/08/03 01:27:38;;;;;;;0.60;0.60;;;;;;;15.94;70.38;98756.38;5152100;27;41775;-83
2021/08/03 01:30:08;;;;;;;0.43;0.33;;;;;;;15.86;70.55;98758.00;5152514;27;43172;-82
2021/08/03 01:32:42;;;;;;;0.40;0.40;;;;;;;15.86;71.18;98774.88;5134573;27;41556;-82
2021/08/03 01:35:13;;;;;;;0.60;0.60;;;;;;;15.78;70.96;98767.53;5152806;27;40046;-83
2021/08/03 01:37:41;;;;;;;0.60;0.60;;;;;;;15.77;71.52;98770.31;5134608;27;42173;-83
2021/08/03 01:40:14;;;;;;;0.40;0.40;;;;;;;15.72;71.53;98777.88;5151336;27;43189;-82
2021/08/03 01:42:46;;;;;;;0.40;0.40;;;;;;;15.66;71.37;98773.06;5152131;27;43050;-83
2021/08/03 01:45:19;;;;;;;0.50;0.50;;;;;;;15.67;71.18;98790.78;5135351;27;39845;-82
2021/08/03 01:47:47;;;;;;;0.30;0.30;;;;;;;15.63;70.96;98789.31;5134352;27;40751;-84
2021/08/03 01:50:18;;;;;;;0.30;0.30;;;;;;;15.49;71.31;98778.94;5152203;27;42325;-84
2021/08/03 01:52:57;;;;;;;0.30;0.30;;;;;;;15.46;71.24;98772.88;5134233;27;41715;-83
2021/08/03 01:55:29;;;;;;;0.50;0.50;;;;;;;15.39;71.10;98769.03;5134419;27;39136;-82
2021/08/03 01:58:02;;;;;;;0.30;0.30;;;;;;;15.45;71.35;98787.19;5151931;27;42497;-83
2021/08/03 02:00:42;;;;;;;0.43;0.43;;;;;;;15.43;70.95;98789.16;5151136;27;43069;-83
2021/08/03 02:03:16;;;;;;;0.30;0.30;;;;;;;15.35;71.83;98783.59;5133350;27;42393;-82
2021/08/03 02:05:45;;;;;;;0.80;0.80;;;;;;;15.28;72.06;98770.91;5151179;27;39936;-84
2021/08/03 02:08:27;;;;;;;0.40;0.40;;;;;;;15.17;71.50;98766.47;5133668;27;41004;-82
2021/08/03 02:11:08;;;;;;;0.30;0.30;;;;;;;15.30;71.46;98783.16;5151376;27;43594;-81
2021/08/03 02:13:36;;;;;;;0.40;0.40;;;;;;;15.15;71.44;98778.22;5133455;27;41245;-82
2021/08/03 02:16:09;;;;;;;0.30;0.30;;;;;;;15.23;71.16;98783.75;5134312;27;40707;-80
2021/08/03 02:18:39;;;;;;;0.77;0.50;;;;;;;15.18;71.15;98784.16;5133487;27;41840;-82
2021/08/03 02:21:08;;;;;;;0.30;0.30;;;;;;;15.05;71.78;98762.13;5151354;27;42842;-83
2021/08/03 02:23:37;;;;;;;0.50;0.50;;;;;;;15.13;71.86;98775.69;5151393;27;43179;-80
2021/08/03 02:26:09;;;;;;;0.30;0.30;;;;;;;15.11;71.53;98777.63;5133361;27;39266;-82
2021/08/03 02:28:37;;;;;;;0.30;0.30;;;;;;;15.07;71.66;98777.06;5134028;27;41475;-81
2021/08/03 02:31:14;;;;;;;0.40;0.40;;;;;;;15.05;71.52;98767.47;5133629;27;42826;-83
2021/08/03 02:33:49;;;;;;;0.30;0.30;;;;;;;15.05;71.43;98778.13;5151023;27;42383;-81
2021/08/03 02:36:20;;;;;;;0.40;0.40;;;;;;;15.12;70.90;98783.81;5150855;27;40286;-80
2021/08/03 02:38:57;;;;;;;0.30;0.30;;;;;;;15.09;70.89;98767.06;5133283;27;40829;-83
2021/08/03 02:41:30;;;;;;;0.40;0.40;;;;;;;15.08;70.96;98761.91;5133804;27;42222;-81
2021/08/03 02:44:01;;;;;;;0.53;0.40;;;;;;;15.14;70.63;98761.38;5151205;27;42389;-83
2021/08/03 02:46:31;;;;;;;0.30;0.30;;;;;;;15.16;70.62;98751.44;5133747;27;39143;-82
2021/08/03 02:49:03;;;;;;;0.67;0.60;;;;;;;15.34;70.53;98783.72;5151474;27;42530;-80
2021/08/03 02:51:33;;;;;;;0.40;0.40;;;;;;;15.27;70.44;98759.38;5133671;27;41616;-80
2021/08/03 02:54:04;;;;;;;0.23;0.23;;;;;;;15.29;70.41;98757.44;5150445;27;42363;-82
2021/08/03 02:56:34;;;;;;;0.23;0.23;;;;;;;15.34;70.62;98746.38;5150626;27;40240;-81
2021/08/03 02:59:08;;;;;;;0.40;0.40;;;;;;;15.48;71.09;98769.22;5151042;27;41815;-81
2021/08/03 03:01:41;;;;;;;0.60;0.60;;;;;;;15.50;71.07;98761.94;5133332;27;41887;-79
2021/08/03 03:04:15;;;;;;;0.60;0.60;;;;;;;15.51;70.80;98759.16;5150521;27;43025;-81
2021/08/03 03:06:47;;;;;;;0.43;0.43;;;;;;;15.54;70.43;98768.72;5133410;27;39901;-82
2021/08/03 03:09:15;;;;;;;0.40;0.40;;;;;;;15.53;70.39;98756.34;5150385;27;44578;-82
2021/08/03 03:11:43;;;;;;;0.53;0.53;;;;;;;15.53;70.69;98761.69;5133054;27;41868;-80
2021/08/03 03:14:15;;;;;;;0.40;0.40;;;;;;;15.55;70.57;98765.97;5133210;27;41247;-80
2021/08/03 03:16:46;;;;;;;0.47;0.47;;;;;;;15.54;70.48;98763.38;5152181;27;40477;-81
2021/08/03 03:19:18;;;;;;;2.73;0.57;;;;;;;15.53;70.57;98759.03;5151784;27;41972;-82
2021/08/03 03:21:48;;;;;;;0.87;0.53;;;;;;;15.52;70.79;98765.34;5132689;27;41684;-81
2021/08/03 03:24:16;;;;;;;0.50;0.50;;;;;;;15.53;70.93;98767.03;5132955;27;41242;-82
2021/08/03 03:26:48;;;;;;;0.37;0.37;;;;;;;15.34;70.66;98733.88;5131991;27;39269;-79
2021/08/03 03:29:17;;;;;;;0.37;0.30;;;;;;;15.53;70.79;98759.88;5149915;27;42754;-82
2021/08/03 03:31:49;;;;;;;0.50;0.50;;;;;;;15.52;70.81;98752.84;5149551;27;43123;-82
2021/08/03 03:34:18;;;;;;;0.53;0.50;;;;;;;15.55;70.90;98762.44;5149757;27;43357;-81
2021/08/03 03:36:49;;;;;;;0.47;0.47;;;;;;;15.45;71.29;98749.81;5150318;27;38984;-82
2021/08/03 03:39:18;;;;;;;0.50;0.50;;;;;;;15.52;71.25;98765.34;5149664;27;42204;-84
2021/08/03 03:41:55;;;;;;;0.40;0.40;;;;;;;15.50;71.03;98761.94;5150208;27;43830;-82
2021/08/03 03:44:23;;;;;;;0.80;0.80;;;;;;;15.40;71.22;98760.06;5151159;27;42478;-80
2021/08/03 03:46:57;;;;;;;0.40;0.40;;;;;;;15.46;71.01;98762.19;5150863;27;40201;-82
2021/08/03 03:49:31;;;;;;;0.43;0.43;;;;;;;15.44;71.04;98758.84;5132614;27;41029;-80
2021/08/03 03:52:01;;;;;;;0.60;0.50;;;;;;;15.46;70.64;98762.19;5149297;27;43546;-82
2021/08/03 03:54:34;;;;;;;0.83;0.40;;;;;;;15.50;70.56;98756.59;5149228;27;42561;-80
2021/08/03 03:57:05;;;;;;;0.40;0.40;;;;;;;15.42;70.69;98739.44;5149716;27;41669;-81
2021/08/03 03:59:37;;;;;;;0.40;0.40;;;;;;;15.51;70.71;98742.28;5132144;27;40926;-80
2021/08/03 04:02:08;;;;;;;0.53;0.37;;;;;;;15.47;70.72;98725.69;5150395;27;42741;-82
2021/08/03 04:04:38;;;;;;;0.40;0.40;;;;;;;15.61;71.27;98743.22;5154032;27;43284;-82
2021/08/03 04:07:06;;;;;;;0.50;0.50;;;;;;;15.61;71.62;98737.88;5154078;27;40326;-83
2021/08/03 04:09:34;;;;;;;0.73;0.50;;;;;;;15.49;71.57;98712.22;5153793;27;42123;-80
2021/08/03 04:12:07;;;;;;;0.37;0.30;;;;;;;15.67;71.32;98738.22;5153658;27;43918;-82
2021/08/03 04:14:37;;;;;;;0.50;0.50;;;;;;;15.57;71.33;98720.47;5154108;27;42498;-82
2021/08/03 04:17:11;;;;;;;0.60;0.60;;;;;;;15.72;71.34;98743.16;5152485;27;39232;-83
2021/08/03 04:19:42;;;;;;;0.50;0.50;;;;;;;15.79;71.19;98742.53;5135190;27;41102;-79
2021/08/03 04:22:10;;;;;;;0.50;0.50;;;;;;;15.82;70.88;98735.22;5152667;27;42345;-83
2021/08/03 04:24:38;;;;;;;0.40;0.40;;;;;;;15.93;71.35;98744.00;5152816;27;42592;-81
2021/08/03 04:27:06;;;;;;;0.50;0.50;;;;;;;15.96;70.83;98749.06;5153330;27;40279;-84
2021/08/03 04:29:34;;;;;;;0.30;0.30;;;;;;;16.00;71.12;98744.31;5153367;27;41999;-84
2021/08/03 04:32:02;;;;;;;0.50;0.50;;;;;;;16.13;70.87;98744.94;5153271;27;44984;-81
2021/08/03 04:34:31;;;;;;;0.83;0.80;;;;;;;16.08;71.02;98731.97;5135380;27;41640;-81
2021/08/03 04:36:59;;;;;;;0.70;0.70;;;;;;;16.19;70.67;98740.91;5135240;27;38910;-83
2021/08/03 04:39:28;;;;;;;0.47;0.47;;;;;;;16.33;71.30;98744.03;5135739;27;41911;-83
2021/08/03 04:41:56;;;;;;;0.90;0.50;;;;;;;16.39;71.18;98743.50;5135372;27;41963;-83
2021/08/03 04:44:23;;;;;;;0.77;0.60;;;;;;;16.46;70.78;98738.47;5135991;27;42635;-82
2021/08/03 04:46:51;;;;;;;0.40;0.40;;;;;;;16.53;70.97;98742.28;5153106;27;39875;-81
2021/08/03 04:49:19;;;;;;;0.40;0.40;;;;;;;16.57;71.20;98738.34;5154350;27;41823;-81
2021/08/03 04:51:49;;;;;;;0.60;0.53;;;;;;;16.45;71.07;98713.56;5135611;27;42134;-82
2021/08/03 04:54:18;;;;;;;0.40;0.40;;;;;;;16.55;70.90;98721.63;5135879;27;41984;-82
2021/08/03 04:56:46;;;;;;;1.07;0.50;;;;;;;16.71;71.28;98746.03;5153221;27;40293;-82
2021/08/03 04:59:13;;;;;;;0.50;0.50;;;;;;;16.75;71.11;98736.75;5152221;27;40739;-84
2021/08/03 05:01:41;;;;;;;0.50;0.50;;;;;;;16.73;70.95;98721.81;5152450;27;42837;-84
2021/08/03 05:04:08;;;;;;;0.80;0.53;;;;;;;16.78;70.82;98720.44;5134809;27;42186;-83
2021/08/03 05:06:36;;;;;;;0.40;0.40;;;;;;;16.84;70.64;98717.19;5135032;27;39212;-80
2021/08/03 05:09:05;;;;;;;0.43;0.43;;;;;;;17.00;70.29;98730.03;5152690;27;42746;-83
2021/08/03 05:11:33;;;;;;;0.37;0.37;;;;;;;17.02;70.22;98721.88;5153384;27;43186;-82
2021/08/03 05:14:00;;;;;;;0.60;0.60;;;;;;;17.18;70.32;98732.88;5133784;27;41541;-79
2021/08/03 05:16:29;;;;;;;0.37;0.37;;;;;;;17.22;70.25;98718.22;5134242;27;40280;-82
2021/08/03 05:18:57;;;;;;;0.70;0.70;;;;;;;17.34;69.88;98721.59;5152999;27;42066;-82
2021/08/03 05:21:24;;;;;;;0.60;0.57;;;;;;;17.34;69.78;98709.03;5152402;27;42753;-82
2021/08/03 05:23:52;;;;;;;0.73;0.73;;;;;;;17.58;69.54;98725.50;5151491;27;42175;-83
2021/08/03 05:26:22;;;;;;;0.50;0.50;;;;;;;17.66;69.62;98715.97;5152142;27;40029;-82
2021/08/03 05:28:49;;;;;;;0.87;0.87;;;;;;;17.76;69.48;98719.47;5134724;27;40742;-82
2021/08/03 05:31:17;;;;;;;0.70;0.60;;;;;;;17.84;69.29;98720.41;5152148;27;43847;-81
2021/08/03 05:33:45;;;;;;;0.70;0.70;;;;;;;17.87;68.96;98711.25;5150880;27;41208;-83
2021/08/03 05:36:13;;;;;;;0.50;0.50;;;;;;;17.91;68.71;98704.63;5134253;27;40157;-82
2021/08/03 05:38:41;;;;;;;0.73;0.73;;;;;;;18.07;68.59;98715.53;5152696;27;40914;-82
2021/08/03 05:41:09;;;;;;;1.10;0.60;;;;;;;18.06;68.37;98703.13;5134328;27;42222;-82
2021/08/03 05:43:38;;;;;;;0.97;0.60;;;;;;;18.23;68.38;98721.13;5135746;27;42576;-82
2021/08/03 05:46:06;;;;;;;0.70;0.70;;;;;;;18.16;67.73;98703.97;5151534;27;39055;-82
2021/08/03 05:48:41;;;;;;;0.93;0.93;;;;;;;18.22;67.70;98714.09;5152423;27;41694;-84
2021/08/03 05:51:08;;;;;;;1.20;1.10;;;;;;;18.17;67.67;98702.97;5150401;27;41836;-83
2021/08/03 05:53:36;;;;;;;1.53;1.00;;;;;;;18.30;67.87;98711.50;5151684;27;42460;-83
2021/08/03 05:56:04;;;;;;;0.70;0.70;;;;;;;18.37;67.50;98706.41;5134271;27;40281;-82
2021/08/03 05:58:32;;;;;;;0.93;0.70;;;;;;;18.54;67.27;98724.41;5152624;27;41855;-83
2021/08/03 06:01:01;;;;;;;0.70;0.70;;;;;;;18.67;67.36;98718.69;5133589;27;42984;-83
2021/08/03 06:03:29;;;;;;;0.73;0.73;;;;;;;18.73;67.18;98712.72;5151417;27;42923;-82
2021/08/03 06:05:57;;;;;;;0.80;0.70;;;;;;;18.89;66.82;98731.69;5151796;27;38939;-82
2021/08/03 06:08:31;;;;;;;2.97;1.30;;;;;;;18.95;66.56;98706.91;5150794;27;41018;-83
2021/08/03 06:10:59;;;;;;;0.77;0.77;;;;;;;19.17;66.13;98715.50;5133585;27;41755;-83
2021/08/03 06:13:30;;;;;;;1.40;0.93;;;;;;;19.17;65.73;98694.03;5133512;27;42914;-82
2021/08/03 06:16:03;;;;;;;0.87;0.87;;;;;;;19.33;65.72;98694.19;5133480;27;39943;-82
2021/08/03 06:18:32;;;;;;;1.23;0.67;;;;;;;19.59;65.26;98713.91;5134362;27;41634;-82
2021/08/03 06:21:00;;;;;;;1.17;0.60;;;;;;;19.80;65.06;98712.69;5150996;27;42906;-82
2021/08/03 06:23:28;;;;;;;0.60;0.60;;;;;;;19.90;64.82;98714.31;5150714;27;42753;-82
2021/08/03 06:26:49;;;;;;;0.70;0.70;;;;;;;20.07;63.97;98718.75;5049042;28;41154;-83
2021/08/03 06:29:55;;;;;;;0.57;0.57;;;;;;;20.31;63.14;98722.59;5049664;28;41970;-82
2021/08/03 06:33:08;;;;;;;0.97;0.70;;;;;;;20.07;62.58;98669.53;5072926;28;41709;-84
2021/08/03 06:36:30;;;;;;;;;;;;;;;;;;;;;
2021/08/03 06:40:06;;;;;;;0.63;0.63;;;;;;;20.13;62.52;98660.84;4993589;28;39857;-83
2021/08/03 06:51:18;;;;;;;1.70;0.67;;;;;;;21.02;61.61;98739.19;4990640;28;41213;-80
2021/08/03 07:02:33;;;;;;;0.67;0.67;;;;;;;22.80;56.74;98750.88;4868552;29;43714;-82
2021/08/03 07:09:53;;;;;;;0.30;0.30;;;;;;;23.13;55.54;98703.75;4827969;29;38999;-81
2021/08/03 07:32:35;;;;;;;0.60;0.60;;;;;;;23.31;53.15;98762.06;4935208;28;42103;-82
2021/08/03 07:54:56;;;;;;;;;;;;;;;;;;;;;
2021/08/03 07:58:51;;;;;;;0.30;0.30;;;;;;;25.40;48.41;98714.81;5104357;28;41902;-83
2021/08/03 08:20:30;;;;;;;0.53;0.53;;;;;;;26.00;46.11;98713.47;4810517;29;44090;-82
2021/08/03 08:24:16;;;;;;;0.67;0.47;;;;;;;26.45;45.12;98758.31;5155640;27;43957;-84
2021/08/03 08:35:23;;;;;;;0.33;0.33;;;;;;;26.67;44.96;98740.03;4843758;29;43326;-82
2021/08/03 08:43:26;;;;;;;0.33;0.30;;;;;;;26.28;45.29;98745.22;4923156;28;41064;-81
2021/08/03 09:10:58;;;;;;;0.40;0.40;;;;;;;27.20;45.03;98748.41;5095963;27;44087;-82
2021/08/03 09:14:19;;;;;;;0.67;0.50;;;;;;;27.03;44.42;98718.03;5113393;27;40043;-81
2021/08/03 09:31:34;;;;;;;0.40;0.40;;;;;;;27.28;42.87;98703.88;4878650;28;41335;-83
2021/08/03 09:52:20;;;;;;;0.30;0.30;;;;;;;29.18;39.21;98772.81;5013671;27;41935;-83
2021/08/03 10:10:45;;;;;;;0.57;0.57;;;;;;;29.15;36.44;98751.47;5066278;28;43003;-82
2021/08/03 10:13:13;;;;;;;0.30;0.30;;;;;;;28.71;37.21;98754.94;5084753;27;42124;-81
2021/08/03 10:16:45;;;;;;;0.30;0.30;;;;;;;28.28;38.28;98781.88;5115810;27;40557;-83
2021/08/03 10:19:23;;;;;;;0.50;0.50;;;;;;;27.53;39.33;98746.63;5116428;27;41263;-83
2021/08/03 10:28:22;;;;;;;0.50;0.50;;;;;;;25.91;44.31;98725.50;5105984;27;39022;-84
2021/08/03 10:30:54;;;;;;;0.50;0.50;;;;;;;25.03;49.23;98717.75;5116453;27;40861;-83
2021/08/03 10:33:44;;;;;;;0.30;0.30;;;;;;;23.18;55.79;98704.06;5102995;27;42093;-84
2021/08/03 10:36:44;;;;;;;0.93;0.93;;;;;;;22.27;58.92;98694.88;5129819;27;42366;-85
2021/08/03 10:39:14;;;;;;;0.90;0.57;;;;;;;22.13;60.35;98713.47;5116677;27;40193;-85
2021/08/03 10:42:07;;;;;;;0.40;0.40;;;;;;;22.10;61.92;98718.38;5116113;27;42077;-84
2021/08/03 10:44:45;;;;;;;0.50;0.50;;;;;;;21.99;61.37;98721.44;5151268;27;43146;-84
2021/08/03 10:47:47;;;;;;;0.63;0.60;;;;;;;22.02;62.34;98721.91;5115572;27;41218;-82
2021/08/03 10:50:27;;;;;;;0.40;0.40;;;;;;;21.74;61.90;98694.50;5132202;27;39303;-83
2021/08/03 10:52:58;;;;;;;0.50;0.50;;;;;;;21.49;62.48;98698.22;5115604;27;42324;-82
2021/08/03 10:55:41;;;;;;;0.50;0.50;;;;;;;21.46;62.50;98736.25;5133831;27;42954;-83
2021/08/03 10:58:27;;;;;;;0.30;0.30;;;;;;;21.12;62.08;98715.66;5132865;27;42646;-85
2021/08/03 11:00:58;;;;;;;0.43;0.43;;;;;;;20.99;62.93;98723.38;5115782;27;40358;-83
2021/08/03 11:03:42;;;;;;;0.50;0.30;;;;;;;20.66;63.32;98705.44;5116062;27;41639;-87
2021/08/03 11:06:38;;;;;;;0.30;0.30;;;;;;;20.49;64.87;98701.03;5132664;27;42513;-84
2021/08/03 11:09:33;;;;;;;0.37;0.37;;;;;;;20.44;64.79;98706.88;5069618;27;41549;-83
2021/08/03 11:12:44;;;;;;;0.40;0.40;;;;;;;20.38;65.02;98708.38;5133613;27;41727;-83
2021/08/03 11:15:38;;;;;;;0.30;0.30;;;;;;;20.43;64.62;98706.03;5115284;27;42045;-82
2021/08/03 11:18:10;;;;;;;0.33;0.33;;;;;;;20.53;64.42;98705.06;5132768;27;41745;-84
2021/08/03 11:21:08;;;;;;;0.30;0.30;;;;;;;20.60;63.94;98700.72;5132590;27;41598;-83
2021/08/03 11:24:06;;;;;;;0.30;0.30;;;;;;;20.65;65.22;98679.53;5116293;27;39944;-83
2021/08/03 11:26:42;;;;;;;0.30;0.30;;;;;;;21.06;64.79;98681.31;5114924;27;41231;-81
2021/08/03 11:29:12;;;;;;;0.30;0.30;;;;;;;21.79;63.99;98693.97;5131354;27;41717;-82
2021/08/03 11:31:50;;;;;;;0.30;0.30;;;;;;;22.22;61.50;98684.63;5114848;27;41287;-82
2021/08/03 11:34:23;;;;;;;0.40;0.30;;;;;;;22.74;58.79;98700.25;5132825;27;39443;-82
2021/08/03 11:36:56;;;;;;;0.30;0.30;;;;;;;23.05;57.51;98702.97;5132514;27;42718;-83
2021/08/03 11:39:25;;;;;;;0.30;0.30;;;;;;;23.27;57.36;98697.56;5115225;27;41905;-84
2021/08/03 11:41:53;;;;;;;0.40;0.40;;;;;;;23.36;55.46;98675.91;5151850;27;42247;-81
2021/08/03 11:44:23;;;;;;;0.77;0.30;;;;;;;23.57;56.31;98674.22;5116179;27;39474;-80
2021/08/03 11:46:57;;;;;;;0.40;0.40;;;;;;;23.75;57.57;98668.47;5151530;27;41661;-83
2021/08/03 11:49:32;;;;;;;0.20;0.20;;;;;;;24.00;55.22;98672.59;5132384;27;42858;-80
2021/08/03 11:52:08;;;;;;;0.40;0.40;;;;;;;24.48;55.29;98662.25;5132090;27;42332;-83
2021/08/03 11:54:36;;;;;;;0.20;0.20;;;;;;;24.93;55.41;98657.59;5150741;27;40153;-83
2021/08/03 11:57:29;;;;;;;0.10;0.10;;;;;;;25.35;52.98;98668.44;5114551;27;41122;-83
2021/08/03 12:00:13;;;;;;;0.20;0.20;;;;;;;25.82;50.97;98669.72;5131990;27;41783;-81
2021/08/03 12:02:42;;;;;;;0.27;0.27;;;;;;;26.23;50.00;98655.34;5128484;27;42377;-81
2021/08/03 12:05:16;;;;;;;0.23;0.23;;;;;;;27.12;51.65;98645.28;5131027;27;40446;-82
2021/08/03 12:07:50;;;;;;;0.40;0.40;;;;;;;28.07;48.70;98639.41;5114755;27;40798;-81
2021/08/03 12:10:19;;;;;;;0.30;0.30;;;;;;;29.70;44.62;98656.22;5114707;27;43286;-81
2021/08/03 12:12:48;;;;;;;0.43;0.43;;;;;;;31.28;39.72;98677.16;5150891;27;42981;-83
2021/08/03 12:15:17;;;;;;;0.43;0.20;;;;;;;31.61;37.72;98687.59;5114205;27;41086;-82
2021/08/03 12:17:46;;;;;;;0.40;0.40;;;;;;;33.04;36.95;98676.06;5114291;27;41256;-83
2021/08/03 12:20:41;;;;;;;0.20;0.20;;;;;;;35.13;35.72;98664.47;5150825;27;43839;-82
2021/08/03 12:23:17;;;;;;;0.30;0.30;;;;;;;36.75;32.63;98670.47;5114922;27;41740;-81
2021/08/03 12:25:50;;;;;;;0.30;0.30;;;;;;;37.82;31.00;98668.78;5135040;27;39418;-81
2021/08/03 12:28:28;;;;;;;0.40;0.40;;;;;;;38.60;27.93;98666.44;5135453;27;40782;-83
2021/08/03 12:30:58;;;;;;;0.40;0.40;;;;;;;39.38;27.38;98671.34;5135153;27;41746;-83
2021/08/03 12:33:31;;;;;;;0.50;0.50;;;;;;;40.03;27.97;98667.25;5153719;27;43059;-82
2021/08/03 12:36:16;;;;;;;0.30;0.30;;;;;;;40.63;26.70;98667.72;5118064;27;40183;-81
2021/08/03 12:39:09;;;;;;;0.40;0.40;;;;;;;41.15;24.41;98677.09;5118284;27;41589;-83
2021/08/03 12:41:38;;;;;;;0.60;0.60;;;;;;;41.48;24.14;98681.59;5135790;27;43139;-82
2021/08/03 12:44:06;;;;;;;0.40;0.40;;;;;;;41.73;23.45;98666.47;5118401;27;42408;-82
2021/08/03 12:46:38;;;;;;;0.50;0.50;;;;;;;41.16;22.43;98684.31;5118153;27;39821;-84
2021/08/03 12:49:07;;;;;;;0.40;0.40;;;;;;;39.29;25.48;98673.91;5119635;27;42107;-85
2021/08/03 12:51:36;;;;;;;0.40;0.40;;;;;;;39.23;25.02;98661.16;5137389;27;42909;-83
2021/08/03 12:54:12;;;;;;;0.47;0.47;;;;;;;39.84;23.70;98671.81;5117359;27;41257;-82
2021/08/03 12:56:54;;;;;;;0.50;0.50;;;;;;;40.51;22.79;98678.41;5118702;27;39785;-85
2021/08/03 12:59:32;;;;;;;0.63;0.43;;;;;;;41.21;24.14;98670.34;5136098;27;41962;-86
2021/08/03 13:02:00;;;;;;;0.50;0.50;;;;;;;41.63;22.37;98674.19;5117433;27;43150;-83
2021/08/03 13:04:28;;;;;;;0.40;0.40;;;;;;;41.59;23.00;98666.44;5135284;27;43245;-81
2021/08/03 13:07:00;;;;;;;0.30;0.30;;;;;;;42.04;23.20;98655.66;5118583;27;39726;-85
2021/08/03 13:09:28;;;;;;;0.40;0.40;;;;;;;41.90;22.17;98650.06;5153419;27;41826;-84
2021/08/03 13:11:57;;;;;;;0.47;0.47;;;;;;;41.86;22.86;98664.88;5153827;27;43645;-84
2021/08/03 13:14:24;;;;;;;0.30;0.30;;;;;;;42.36;22.17;98665.09;5134189;27;43030;-83
2021/08/03 13:16:56;;;;;;;0.40;0.40;;;;;;;42.00;21.14;98679.69;5134210;27;38977;-84
2021/08/03 13:19:25;;;;;;;0.40;0.40;;;;;;;42.28;23.03;98663.88;5153268;27;40925;-82
2021/08/03 13:21:52;;;;;;;0.50;0.50;;;;;;;42.66;21.49;98661.72;5134662;27;43366;-83
2021/08/03 13:24:21;;;;;;;0.40;0.40;;;;;;;42.50;20.22;98685.47;5134071;27;42531;-84
2021/08/03 13:26:49;;;;;;;0.40;0.40;;;;;;;42.24;20.75;98694.25;5117021;27;38985;-86
2021/08/03 13:29:17;;;;;;;0.50;0.50;;;;;;;42.19;19.06;98674.88;5135140;27;42079;-88
2021/08/03 13:31:45;;;;;;;0.50;0.50;;;;;;;42.58;20.31;98681.94;5116914;27;43099;-87
2021/08/03 13:34:13;;;;;;;0.50;0.50;;;;;;;42.57;19.50;98688.66;5116636;27;41449;-83
2021/08/03 13:36:41;;;;;;;1.50;0.60;;;;;;;42.44;21.13;98656.88;5117509;27;40257;-84
2021/08/03 13:39:09;;;;;;;0.43;0.43;;;;;;;42.66;20.61;98684.00;5116428;27;41687;-84
2021/08/03 13:41:40;;;;;;;0.30;0.30;;;;;;;42.18;20.84;98659.28;5134626;27;42970;-83
2021/08/03 13:44:08;;;;;;;0.40;0.40;;;;;;;40.60;22.75;98665.53;5116745;27;41213;-83
2021/08/03 13:46:36;;;;;;;0.40;0.40;;;;;;;39.08;24.07;98651.00;5117317;27;40277;-86
2021/08/03 13:49:03;;;;;;;0.30;0.30;;;;;;;37.34;25.64;98626.72;5116478;27;41952;-84
2021/08/03 13:51:31;;;;;;;0.40;0.40;;;;;;;36.05;27.08;98640.53;5152840;27;43609;-85
2021/08/03 13:53:59;;;;;;;0.30;0.30;;;;;;;35.13;28.07;98625.09;5133644;27;42230;-87
2021/08/03 13:56:27;;;;;;;0.40;0.40;;;;;;;34.27;29.03;98635.88;5134784;27;39772;-85
2021/08/03 13:58:57;;;;;;;0.40;0.40;;;;;;;33.57;28.73;98614.47;5116488;27;41603;-86
2021/08/03 14:01:27;;;;;;;0.30;0.30;;;;;;;33.14;30.64;98621.38;5117855;27;20699;-86
2021/08/03 14:03:54;;;;;;;0.33;0.33;;;;;;;33.16;30.75;98626.63;5152656;27;43257;-86
2021/08/03 14:06:23;;;;;;;0.30;0.30;;;;;;;33.21;30.85;98603.94;5134440;27;40089;-86
2021/08/03 14:08:50;;;;;;;0.20;0.20;;;;;;;33.00;30.66;98609.06;5116145;27;40856;-85
2021/08/03 14:11:18;;;;;;;0.27;0.27;;;;;;;32.54;31.28;98609.19;5134425;27;42899;-84
2021/08/03 14:13:46;;;;;;;0.20;0.20;;;;;;;32.12;31.90;98585.59;5134160;27;41515;-85
2021/08/03 14:16:14;;;;;;;0.30;0.30;;;;;;;32.40;32.40;98583.97;5116435;27;39221;-85
2021/08/03 14:18:42;;;;;;;0.20;0.20;;;;;;;32.45;30.46;98595.06;5117060;27;42626;-85
2021/08/03 14:21:10;;;;;;;0.30;0.30;;;;;;;31.81;31.09;98565.94;5134110;27;43758;-84
2021/08/03 14:23:37;;;;;;;0.20;0.20;;;;;;;31.64;32.29;98594.06;5116993;27;41055;-88
2021/08/03 14:26:05;;;;;;;0.20;0.20;;;;;;;31.52;32.77;98579.53;5133880;27;39978;-85
2021/08/03 14:28:33;;;;;;;0.40;0.40;;;;;;;31.83;31.33;98583.81;5116430;27;40957;-83
2021/08/03 14:31:00;;;;;;;0.30;0.30;;;;;;;32.13;32.47;98559.84;5115910;27;41959;-87
2021/08/03 14:33:29;;;;;;;0.53;0.53;;;;;;;33.27;30.63;98592.81;5133821;27;41586;-83
2021/08/03 14:35:57;;;;;;;0.40;0.40;;;;;;;33.87;30.82;98573.75;5115908;27;40197;-83
2021/08/03 14:38:25;;;;;;;0.30;0.30;;;;;;;34.71;28.75;98580.88;5133201;27;42740;-84
2021/08/03 14:40:56;;;;;;;0.20;0.20;;;;;;;35.20;27.20;98579.75;5116682;27;41738;-87
2021/08/03 14:43:23;;;;;;;0.30;0.30;;;;;;;34.91;27.41;98592.13;5112339;27;42505;-83
2021/08/03 14:45:51;;;;;;;0.10;0.10;;;;;;;34.49;28.69;98567.16;5132740;27;38901;-83
2021/08/03 14:48:18;;;;;;;0.30;0.30;;;;;;;34.59;27.83;98567.28;5152018;27;42042;-84
2021/08/03 14:50:48;;;;;;;0.30;0.30;;;;;;;34.47;27.41;98586.69;5116537;27;42147;-85
2021/08/03 14:53:15;;;;;;;0.30;0.30;;;;;;;34.12;27.47;98564.22;5115899;27;42143;-84
2021/08/03 14:55:43;;;;;;;0.40;0.40;;;;;;;33.86;29.03;98565.78;5133377;27;38910;-84
2021/08/03 14:58:10;;;;;;;0.30;0.30;;;;;;;33.54;29.68;98516.09;5115371;27;41750;-86
2021/08/03 15:00:38;;;;;;;0.73;0.73;;;;;;;33.32;31.27;98540.75;5116554;27;41717;-85
2021/08/03 15:03:06;;;;;;;0.30;0.30;;;;;;;33.25;30.59;98550.25;5116624;27;41141;-84
2021/08/03 15:05:33;;;;;;;0.33;0.33;;;;;;;33.00;30.37;98524.00;5132757;27;39541;-84
2021/08/03 15:08:03;;;;;;;0.37;0.37;;;;;;;32.75;29.91;98521.66;5115999;27;42082;-86
2021/08/03 15:10:31;;;;;;;0.30;0.30;;;;;;;32.42;30.25;98536.06;5115516;27;41895;-82
2021/08/03 15:12:58;;;;;;;0.30;0.30;;;;;;;32.06;30.92;98519.94;5115445;27;41392;-84
2021/08/03 15:15:26;;;;;;;0.50;0.50;;;;;;;31.97;32.46;98521.41;5115843;27;40171;-85
2021/08/03 15:17:54;;;;;;;0.30;0.30;;;;;;;31.83;32.25;98518.09;5133040;27;41946;-85
2021/08/03 15:20:21;;;;;;;0.30;0.30;;;;;;;31.45;33.22;98517.72;5132982;27;42792;-84
2021/08/03 15:22:49;;;;;;;0.40;0.40;;;;;;;31.10;34.14;98509.50;5115001;27;41127;-84
2021/08/03 15:25:18;;;;;;;0.40;0.40;;;;;;;30.69;33.13;98513.91;5132606;27;40085;-83
2021/08/03 15:27:46;;;;;;;0.60;0.30;;;;;;;30.45;33.75;98506.66;5115724;27;41038;-84
2021/08/03 15:30:31;;;;;;;0.50;0.50;;;;;;;30.21;33.46;98481.97;5113274;27;41879;-85